sensor_id;sensor_type;location;lat;lon;timestamp;pressure;altitude;pressure_sealevel;temperature;humidity
72409;BME280;60402;48.082;11.628;2022-11-25T00:00:18;95311.34;;;0.15;100.00
72409;BME280;60402;48.082;11.628;2022-11-25T00:02:43;95350.84;;;0.35;100.00
72409;BME280;60402;48.082;11.628;2022-11-25T00:05:09;95353.66;;;0.39;100.00
72409;BME280;60402;48.082;11.628;2022-11-25T00:07:35;95344.09;;;0.36;100.00
72409;BME280;60402;48.082;11.628;2022-11-25T00:10:01;95349.63;;;0.36;100.00
72409;BME280;60402;48.082;11.628;2022-11-25T00:12:26;95312.81;;;0.06;100.00
72409;BME280;60402;48.082;11.628;2022-11-25T00:14:51;95370.69;;;0.34;100.00
72409;BME280;60402;48.082;11.628;2022-11-25T00:17:17;95350.75;;;0.28;100.00
72409;BME280;60402;48.082;11.628;2022-11-25T00:19:42;95317.53;;;0.02;100.00
72409;BME280;60402;48.082;11.628;2022-11-25T00:22:07;95300.41;;;-0.04;100.00
72409;BME280;60402;48.082;11.628;2022-11-25T00:24:33;95320.81;;;0.11;100.00
72409;BME280;60402;48.082;11.628;2022-11-25T00:26:58;95335.22;;;0.23;100.00
72409;BME280;60402;48.082;11.628;2022-11-25T00:29:23;95337.19;;;0.23;100.00
72409;BME280;60402;48.082;11.628;2022-11-25T00:31:49;95313.56;;;0.03;100.00
72409;BME280;60402;48.082;11.628;2022-11-25T00:34:14;95345.53;;;0.19;100.00
72409;BME280;60402;48.082;11.628;2022-11-25T00:36:39;95326.66;;;0.02;100.00
72409;BME280;60402;48.082;11.628;2022-11-25T00:39:08;95350.69;;;0.21;100.00
72409;BME280;60402;48.082;11.628;2022-11-25T00:41:34;95338.22;;;0.08;100.00
72409;BME280;60402;48.082;11.628;2022-11-25T00:44:19;95335.84;;;0.06;100.00
72409;BME280;60402;48.082;11.628;2022-11-25T00:47:00;95342.59;;;0.09;100.00
72409;BME280;60402;48.082;11.628;2022-11-25T00:49:25;95320.09;;;-0.16;100.00
72409;BME280;60402;48.082;11.628;2022-11-25T00:51:51;95325.38;;;-0.08;100.00
72409;BME280;60402;48.082;11.628;2022-11-25T00:54:17;95347.66;;;-0.01;100.00
72409;BME280;60402;48.082;11.628;2022-11-25T00:56:42;95353.59;;;-0.02;100.00
72409;BME280;60402;48.082;11.628;2022-11-25T00:59:08;95351.28;;;0.04;100.00
72409;BME280;60402;48.082;11.628;2022-11-25T01:01:34;95348.44;;;-0.04;100.00
72409;BME280;60402;48.082;11.628;2022-11-25T01:04:00;95333.94;;;-0.20;100.00
72409;BME280;60402;48.082;11.628;2022-11-25T01:06:25;95303.50;;;-0.46;100.00
72409;BME280;60402;48.082;11.628;2022-11-25T01:08:50;95346.34;;;-0.10;100.00
72409;BME280;60402;48.082;11.628;2022-11-25T01:11:18;95344.38;;;-0.10;100.00
72409;BME280;60402;48.082;11.628;2022-11-25T01:13:44;95310.25;;;-0.44;100.00
72409;BME280;60402;48.082;11.628;2022-11-25T01:16:12;95318.22;;;-0.42;100.00
72409;BME280;60402;48.082;11.628;2022-11-25T01:18:38;95337.44;;;-0.27;100.00
72409;BME280;60402;48.082;11.628;2022-11-25T01:21:09;95347.03;;;-0.20;100.00
72409;BME280;60402;48.082;11.628;2022-11-25T01:23:35;95336.69;;;-0.23;100.00
72409;BME280;60402;48.082;11.628;2022-11-25T01:26:13;95297.91;;;-0.50;100.00
72409;BME280;60402;48.082;11.628;2022-11-25T01:28:39;95327.72;;;-0.43;100.00
72409;BME280;60402;48.082;11.628;2022-11-25T01:33:32;95327.75;;;-0.40;100.00
72409;BME280;60402;48.082;11.628;2022-11-25T01:38:28;95331.56;;;-0.21;100.00
72409;BME280;60402;48.082;11.628;2022-11-25T01:40:53;95322.38;;;-0.26;100.00
72409;BME280;60402;48.082;11.628;2022-11-25T01:43:19;95313.66;;;-0.28;100.00
72409;BME280;60402;48.082;11.628;2022-11-25T01:45:44;95343.56;;;-0.10;100.00
72409;BME280;60402;48.082;11.628;2022-11-25T01:48:15;95334.03;;;-0.13;100.00
72409;BME280;60402;48.082;11.628;2022-11-25T01:50:43;95337.22;;;-0.11;100.00
72409;BME280;60402;48.082;11.628;2022-11-25T01:53:10;95335.63;;;-0.12;100.00
72409;BME280;60402;48.082;11.628;2022-11-25T01:55:41;95296.09;;;-0.35;100.00
72409;BME280;60402;48.082;11.628;2022-11-25T01:58:17;95330.88;;;-0.11;100.00
72409;BME280;60402;48.082;11.628;2022-11-25T02:00:44;95306.91;;;-0.27;100.00
72409;BME280;60402;48.082;11.628;2022-11-25T02:03:19;95345.59;;;-0.07;100.00
72409;BME280;60402;48.082;11.628;2022-11-25T02:06:02;95310.44;;;-0.30;100.00
72409;BME280;60402;48.082;11.628;2022-11-25T02:08:30;95300.84;;;-0.36;100.00
72409;BME280;60402;48.082;11.628;2022-11-25T02:10:57;95310.81;;;-0.31;100.00
72409;BME280;60402;48.082;11.628;2022-11-25T02:13:25;95260.88;;;-0.61;100.00
72409;BME280;60402;48.082;11.628;2022-11-25T02:15:50;95312.84;;;-0.28;100.00
72409;BME280;60402;48.082;11.628;2022-11-25T02:18:16;95335.53;;;-0.19;100.00
72409;BME280;60402;48.082;11.628;2022-11-25T02:20:41;95328.03;;;-0.18;100.00
72409;BME280;60402;48.082;11.628;2022-11-25T02:25:56;95311.28;;;-0.26;100.00
72409;BME280;60402;48.082;11.628;2022-11-25T02:28:27;95287.72;;;-0.39;100.00
72409;BME280;60402;48.082;11.628;2022-11-25T02:30:55;95277.63;;;-0.54;100.00
72409;BME280;60402;48.082;11.628;2022-11-25T02:33:20;95278.00;;;-0.56;100.00
72409;BME280;60402;48.082;11.628;2022-11-25T02:35:49;95331.78;;;-0.34;100.00
72409;BME280;60402;48.082;11.628;2022-11-25T02:38:21;95319.16;;;-0.31;100.00
72409;BME280;60402;48.082;11.628;2022-11-25T02:40:53;95320.78;;;-0.27;100.00
72409;BME280;60402;48.082;11.628;2022-11-25T02:43:19;95317.56;;;-0.29;100.00
72409;BME280;60402;48.082;11.628;2022-11-25T02:45:52;95325.25;;;-0.18;100.00
72409;BME280;60402;48.082;11.628;2022-11-25T02:48:19;95317.84;;;-0.07;100.00
72409;BME280;60402;48.082;11.628;2022-11-25T02:50:44;95312.97;;;-0.17;100.00
72409;BME280;60402;48.082;11.628;2022-11-25T02:53:12;95312.22;;;-0.11;100.00
72409;BME280;60402;48.082;11.628;2022-11-25T02:55:38;95292.69;;;-0.21;100.00
72409;BME280;60402;48.082;11.628;2022-11-25T02:58:03;95290.63;;;-0.28;100.00
72409;BME280;60402;48.082;11.628;2022-11-25T03:00:29;95328.59;;;-0.02;100.00
72409;BME280;60402;48.082;11.628;2022-11-25T03:02:54;95276.19;;;-0.41;100.00
72409;BME280;60402;48.082;11.628;2022-11-25T03:05:21;95302.78;;;-0.40;100.00
72409;BME280;60402;48.082;11.628;2022-11-25T03:07:47;95314.78;;;-0.32;100.00
72409;BME280;60402;48.082;11.628;2022-11-25T03:10:12;95323.50;;;-0.30;100.00
72409;BME280;60402;48.082;11.628;2022-11-25T03:12:38;95294.53;;;-0.33;100.00
72409;BME280;60402;48.082;11.628;2022-11-25T03:15:03;95286.91;;;-0.39;100.00
72409;BME280;60402;48.082;11.628;2022-11-25T03:17:29;95294.09;;;-0.35;100.00
72409;BME280;60402;48.082;11.628;2022-11-25T03:19:54;95312.75;;;-0.35;100.00
72409;BME280;60402;48.082;11.628;2022-11-25T03:22:20;95324.03;;;-0.21;100.00
72409;BME280;60402;48.082;11.628;2022-11-25T03:24:45;95320.00;;;-0.27;100.00
72409;BME280;60402;48.082;11.628;2022-11-25T03:27:10;95316.44;;;-0.24;100.00
72409;BME280;60402;48.082;11.628;2022-11-25T03:29:35;95310.47;;;-0.26;100.00
72409;BME280;60402;48.082;11.628;2022-11-25T03:32:01;95308.50;;;-0.26;100.00
72409;BME280;60402;48.082;11.628;2022-11-25T03:34:26;95309.72;;;-0.23;100.00
72409;BME280;60402;48.082;11.628;2022-11-25T03:36:51;95330.19;;;-0.05;100.00
72409;BME280;60402;48.082;11.628;2022-11-25T03:39:17;95316.19;;;-0.12;100.00
72409;BME280;60402;48.082;11.628;2022-11-25T03:41:42;95289.00;;;-0.33;100.00
72409;BME280;60402;48.082;11.628;2022-11-25T03:44:07;95255.81;;;-0.56;100.00
72409;BME280;60402;48.082;11.628;2022-11-25T03:46:33;95283.28;;;-0.47;100.00
72409;BME280;60402;48.082;11.628;2022-11-25T03:48:58;95326.06;;;-0.18;100.00
72409;BME280;60402;48.082;11.628;2022-11-25T03:51:23;95322.03;;;-0.20;100.00
72409;BME280;60402;48.082;11.628;2022-11-25T03:53:49;95298.91;;;-0.32;100.00
72409;BME280;60402;48.082;11.628;2022-11-25T03:56:14;95309.69;;;-0.27;100.00
72409;BME280;60402;48.082;11.628;2022-11-25T03:58:39;95277.28;;;-0.49;100.00
72409;BME280;60402;48.082;11.628;2022-11-25T04:01:05;95325.25;;;-0.18;100.00
72409;BME280;60402;48.082;11.628;2022-11-25T04:03:30;95306.91;;;-0.27;100.00
72409;BME280;60402;48.082;11.628;2022-11-25T04:08:21;95329.41;;;-0.02;100.00
72409;BME280;60402;48.082;11.628;2022-11-25T04:10:50;95306.97;;;-0.19;100.00
72409;BME280;60402;48.082;11.628;2022-11-25T04:13:15;95317.03;;;-0.08;100.00
72409;BME280;60402;48.082;11.628;2022-11-25T04:15:45;95317.00;;;-0.11;100.00
72409;BME280;60402;48.082;11.628;2022-11-25T04:18:11;95319.06;;;-0.05;100.00
72409;BME280;60402;48.082;11.628;2022-11-25T04:20:37;95332.72;;;0.11;100.00
72409;BME280;60402;48.082;11.628;2022-11-25T04:23:02;95324.72;;;0.06;100.00
72409;BME280;60402;48.082;11.628;2022-11-25T04:25:27;95331.53;;;0.12;100.00
72409;BME280;60402;48.082;11.628;2022-11-25T04:27:53;95325.97;;;0.12;100.00
72409;BME280;60402;48.082;11.628;2022-11-25T04:30:18;95345.47;;;0.16;100.00
72409;BME280;60402;48.082;11.628;2022-11-25T04:32:43;95338.34;;;0.18;100.00
72409;BME280;60402;48.082;11.628;2022-11-25T04:35:09;95327.88;;;0.05;100.00
72409;BME280;60402;48.082;11.628;2022-11-25T04:37:34;95336.88;;;-0.06;100.00
72409;BME280;60402;48.082;11.628;2022-11-25T04:39:59;95342.44;;;-0.06;100.00
72409;BME280;60402;48.082;11.628;2022-11-25T04:42:25;95358.03;;;0.03;100.00
72409;BME280;60402;48.082;11.628;2022-11-25T04:44:57;95341.66;;;-0.06;100.00
72409;BME280;60402;48.082;11.628;2022-11-25T04:47:22;95334.09;;;-0.09;100.00
72409;BME280;60402;48.082;11.628;2022-11-25T04:49:48;95353.25;;;0.03;100.00
72409;BME280;60402;48.082;11.628;2022-11-25T04:52:13;95327.66;;;-0.17;100.00
72409;BME280;60402;48.082;11.628;2022-11-25T04:54:38;95356.44;;;0.02;100.00
72409;BME280;60402;48.082;11.628;2022-11-25T04:57:04;95322.03;;;-0.20;100.00
72409;BME280;60402;48.082;11.628;2022-11-25T04:59:29;95345.22;;;-0.06;100.00
72409;BME280;60402;48.082;11.628;2022-11-25T05:02:04;95340.50;;;-0.02;100.00
72409;BME280;60402;48.082;11.628;2022-11-25T05:04:29;95329.78;;;-0.03;100.00
72409;BME280;60402;48.082;11.628;2022-11-25T05:06:54;95348.16;;;0.09;100.00
72409;BME280;60402;48.082;11.628;2022-11-25T05:09:20;95352.06;;;0.04;100.00
72409;BME280;60402;48.082;11.628;2022-11-25T05:11:45;95352.22;;;0.15;100.00
72409;BME280;60402;48.082;11.628;2022-11-25T05:14:11;95319.03;;;-0.08;100.00
72409;BME280;60402;48.082;11.628;2022-11-25T05:16:36;95343.38;;;0.06;100.00
72409;BME280;60402;48.082;11.628;2022-11-25T05:19:02;95341.41;;;0.06;100.00
72409;BME280;60402;48.082;11.628;2022-11-25T05:21:27;95359.06;;;0.24;100.00
72409;BME280;60402;48.082;11.628;2022-11-25T05:23:53;95355.50;;;0.28;100.00
72409;BME280;60402;48.082;11.628;2022-11-25T05:26:19;95358.19;;;0.17;100.00
72409;BME280;60402;48.082;11.628;2022-11-25T05:28:44;95285.81;;;-0.31;100.00
72409;BME280;60402;48.082;11.628;2022-11-25T05:31:10;95357.28;;;0.09;100.00
72409;BME280;60402;48.082;11.628;2022-11-25T05:33:35;95352.22;;;0.15;100.00
72409;BME280;60402;48.082;11.628;2022-11-25T05:36:02;95357.72;;;0.11;100.00
72409;BME280;60402;48.082;11.628;2022-11-25T05:38:28;95345.19;;;-0.09;100.00
72409;BME280;60402;48.082;11.628;2022-11-25T05:41:00;95344.94;;;0.03;100.00
72409;BME280;60402;48.082;11.628;2022-11-25T05:43:25;95349.78;;;0.13;100.00
72409;BME280;60402;48.082;11.628;2022-11-25T05:45:51;95365.38;;;0.21;100.00
72409;BME280;60402;48.082;11.628;2022-11-25T05:48:16;95338.56;;;0.03;100.00
72409;BME280;60402;48.082;11.628;2022-11-25T05:50:41;95343.84;;;0.11;100.00
72409;BME280;60402;48.082;11.628;2022-11-25T05:53:07;95344.84;;;-0.04;100.00
72409;BME280;60402;48.082;11.628;2022-11-25T05:55:32;95342.84;;;-0.07;100.00
72409;BME280;60402;48.082;11.628;2022-11-25T05:57:58;95360.78;;;0.03;100.00
72409;BME280;60402;48.082;11.628;2022-11-25T06:00:24;95373.22;;;0.12;100.00
72409;BME280;60402;48.082;11.628;2022-11-25T06:02:50;95364.72;;;-0.02;100.00
72409;BME280;60402;48.082;11.628;2022-11-25T06:05:16;95354.34;;;-0.05;100.00
72409;BME280;60402;48.082;11.628;2022-11-25T06:07:41;95353.19;;;-0.04;100.00
72409;BME280;60402;48.082;11.628;2022-11-25T06:10:07;95367.59;;;0.05;100.00
72409;BME280;60402;48.082;11.628;2022-11-25T06:12:32;95348.78;;;-0.05;100.00
72409;BME280;60402;48.082;11.628;2022-11-25T06:14:58;95355.91;;;-0.08;100.00
72409;BME280;60402;48.082;11.628;2022-11-25T06:17:23;95364.38;;;0.03;100.00
72409;BME280;60402;48.082;11.628;2022-11-25T06:19:48;95358.03;;;0.03;100.00
72409;BME280;60402;48.082;11.628;2022-11-25T06:22:14;95354.00;;;-0.04;100.00
72409;BME280;60402;48.082;11.628;2022-11-25T06:24:39;95352.72;;;-0.10;100.00
72409;BME280;60402;48.082;11.628;2022-11-25T06:27:04;95329.19;;;-0.19;100.00
72409;BME280;60402;48.082;11.628;2022-11-25T06:29:30;95345.16;;;-0.13;100.00
72409;BME280;60402;48.082;11.628;2022-11-25T06:31:55;95377.41;;;-0.01;100.00
72409;BME280;60402;48.082;11.628;2022-11-25T06:34:20;95372.41;;;0.12;100.00
72409;BME280;60402;48.082;11.628;2022-11-25T06:36:48;95347.09;;;-0.17;100.00
72409;BME280;60402;48.082;11.628;2022-11-25T06:39:13;95325.94;;;-0.25;100.00
72409;BME280;60402;48.082;11.628;2022-11-25T06:41:39;95345.50;;;-0.18;100.00
72409;BME280;60402;48.082;11.628;2022-11-25T06:44:04;95371.84;;;-0.01;100.00
72409;BME280;60402;48.082;11.628;2022-11-25T06:46:29;95345.50;;;-0.14;100.00
72409;BME280;60402;48.082;11.628;2022-11-25T06:48:58;95336.38;;;-0.18;100.00
72409;BME280;60402;48.082;11.628;2022-11-25T06:51:23;95351.97;;;-0.07;100.00
72409;BME280;60402;48.082;11.628;2022-11-25T06:53:48;95357.22;;;0.02;100.00
72409;BME280;60402;48.082;11.628;2022-11-25T06:56:19;95386.41;;;0.22;100.00
72409;BME280;60402;48.082;11.628;2022-11-25T06:58:46;95377.78;;;0.31;100.00
72409;BME280;60402;48.082;11.628;2022-11-25T07:01:30;95361.06;;;0.28;100.00
72409;BME280;60402;48.082;11.628;2022-11-25T07:04:01;95339.53;;;0.17;100.00
72409;BME280;60402;48.082;11.628;2022-11-25T07:06:27;95353.22;;;0.33;100.00
72409;BME280;60402;48.082;11.628;2022-11-25T07:08:53;95330.47;;;0.24;100.00
72409;BME280;60402;48.082;11.628;2022-11-25T07:11:24;95377.38;;;0.70;100.00
72409;BME280;60402;48.082;11.628;2022-11-25T07:13:52;95374.59;;;0.70;100.00
72409;BME280;60402;48.082;11.628;2022-11-25T07:16:18;95369.09;;;0.77;100.00
72409;BME280;60402;48.082;11.628;2022-11-25T07:18:43;95362.72;;;0.73;100.00
72409;BME280;60402;48.082;11.628;2022-11-25T07:21:15;95384.69;;;0.89;100.00
72409;BME280;60402;48.082;11.628;2022-11-25T07:23:41;95374.28;;;0.79;100.00
72409;BME280;60402;48.082;11.628;2022-11-25T07:26:10;95374.41;;;0.93;100.00
72409;BME280;60402;48.082;11.628;2022-11-25T07:28:36;95370.88;;;0.99;100.00
72409;BME280;60402;48.082;11.628;2022-11-25T07:31:13;95359.84;;;1.10;100.00
72409;BME280;60402;48.082;11.628;2022-11-25T07:33:39;95377.59;;;1.46;99.72
72409;BME280;60402;48.082;11.628;2022-11-25T07:36:10;95387.31;;;1.81;98.84
72409;BME280;60402;48.082;11.628;2022-11-25T07:38:36;95387.75;;;1.90;97.97
72409;BME280;60402;48.082;11.628;2022-11-25T07:41:07;95389.13;;;2.28;97.46
72409;BME280;60402;48.082;11.628;2022-11-25T07:43:33;95370.00;;;2.34;96.04
72409;BME280;60402;48.082;11.628;2022-11-25T07:46:16;95383.22;;;2.51;94.12
72409;BME280;60402;48.082;11.628;2022-11-25T07:48:42;95363.66;;;2.48;93.08
72409;BME280;60402;48.082;11.628;2022-11-25T07:51:23;95398.00;;;2.66;92.17
72409;BME280;60402;48.082;11.628;2022-11-25T07:53:50;95398.72;;;2.38;93.36
72409;BME280;60402;48.082;11.628;2022-11-25T07:56:16;95366.41;;;2.30;93.43
72409;BME280;60402;48.082;11.628;2022-11-25T07:58:42;95383.06;;;2.09;93.13
72409;BME280;60402;48.082;11.628;2022-11-25T08:01:09;95402.56;;;2.05;94.07
72409;BME280;60402;48.082;11.628;2022-11-25T08:03:37;95396.53;;;1.92;94.12
72409;BME280;60402;48.082;11.628;2022-11-25T08:06:03;95376.13;;;1.70;94.40
72409;BME280;60402;48.082;11.628;2022-11-25T08:08:29;95406.44;;;1.83;95.12
72409;BME280;60402;48.082;11.628;2022-11-25T08:10:55;95410.38;;;1.78;95.34
72409;BME280;60402;48.082;11.628;2022-11-25T08:13:20;95389.53;;;1.54;95.89
72409;BME280;60402;48.082;11.628;2022-11-25T08:15:46;95388.81;;;1.64;96.94
72409;BME280;60402;48.082;11.628;2022-11-25T08:18:11;95393.22;;;1.65;96.53
72409;BME280;60402;48.082;11.628;2022-11-25T08:20:36;95407.22;;;1.83;96.38
72409;BME280;60402;48.082;11.628;2022-11-25T08:23:02;95398.41;;;1.70;96.88
72409;BME280;60402;48.082;11.628;2022-11-25T08:25:27;95381.69;;;1.74;96.91
72409;BME280;60402;48.082;11.628;2022-11-25T08:27:54;95398.53;;;1.95;97.61
72409;BME280;60402;48.082;11.628;2022-11-25T08:30:19;95376.56;;;1.83;96.05
72409;BME280;60402;48.082;11.628;2022-11-25T08:32:48;95381.53;;;2.22;96.12
72409;BME280;60402;48.082;11.628;2022-11-25T08:35:14;95401.50;;;2.38;94.40
72409;BME280;60402;48.082;11.628;2022-11-25T08:37:39;95362.06;;;2.40;94.90
72409;BME280;60402;48.082;11.628;2022-11-25T08:40:05;95405.94;;;2.68;94.00
72409;BME280;60402;48.082;11.628;2022-11-25T08:42:33;95413.06;;;2.44;95.12
72409;BME280;60402;48.082;11.628;2022-11-25T08:44:59;95405.09;;;2.42;96.65
72409;BME280;60402;48.082;11.628;2022-11-25T08:47:25;95411.06;;;2.41;96.38
72409;BME280;60402;48.082;11.628;2022-11-25T08:49:52;95418.22;;;2.38;96.90
72409;BME280;60402;48.082;11.628;2022-11-25T08:52:19;95415.09;;;2.50;96.67
72409;BME280;60402;48.082;11.628;2022-11-25T08:54:44;95404.72;;;2.47;96.52
72409;BME280;60402;48.082;11.628;2022-11-25T08:57:10;95372.84;;;2.45;95.64
72409;BME280;60402;48.082;11.628;2022-11-25T08:59:35;95431.50;;;2.91;95.86
72409;BME280;60402;48.082;11.628;2022-11-25T09:02:01;95373.28;;;2.68;95.73
72409;BME280;60402;48.082;11.628;2022-11-25T09:04:27;95382.47;;;2.87;95.29
72409;BME280;60402;48.082;11.628;2022-11-25T09:06:52;95419.59;;;3.08;95.23
72409;BME280;60402;48.082;11.628;2022-11-25T09:09:18;95391.66;;;3.01;94.21
72409;BME280;60402;48.082;11.628;2022-11-25T09:11:43;95400.44;;;3.14;94.22
72409;BME280;60402;48.082;11.628;2022-11-25T09:14:08;95395.66;;;3.04;93.57
72409;BME280;60402;48.082;11.628;2022-11-25T09:16:34;95393.66;;;3.29;93.16
72409;BME280;60402;48.082;11.628;2022-11-25T09:18:59;95447.09;;;3.71;92.08
72409;BME280;60402;48.082;11.628;2022-11-25T09:21:25;95449.88;;;3.85;92.24
72409;BME280;60402;48.082;11.628;2022-11-25T09:23:52;95461.03;;;3.99;92.13
72409;BME280;60402;48.082;11.628;2022-11-25T09:26:27;95473.72;;;4.36;90.51
72409;BME280;60402;48.082;11.628;2022-11-25T09:28:53;95456.09;;;4.50;88.21
72409;BME280;60402;48.082;11.628;2022-11-25T09:31:19;95462.06;;;4.59;88.52
72409;BME280;60402;48.082;11.628;2022-11-25T09:33:44;95448.50;;;4.57;88.16
72409;BME280;60402;48.082;11.628;2022-11-25T09:36:12;95477.06;;;5.01;88.61
72409;BME280;60402;48.082;11.628;2022-11-25T09:38:38;95474.53;;;5.24;84.90
72409;BME280;60402;48.082;11.628;2022-11-25T09:47:19;95460.88;;;5.30;83.32
72409;BME280;60402;48.082;11.628;2022-11-25T09:55:15;95462.41;;;5.42;82.55
72409;BME280;60402;48.082;11.628;2022-11-25T10:00:44;95448.75;;;5.47;81.22
72409;BME280;60402;48.082;11.628;2022-11-25T10:05:50;95451.19;;;5.42;81.97
72409;BME280;60402;48.082;11.628;2022-11-25T10:08:21;95483.50;;;5.57;82.46
72409;BME280;60402;48.082;11.628;2022-11-25T10:10:54;95476.69;;;5.58;82.33
72409;BME280;60402;48.082;11.628;2022-11-25T10:13:36;95463.22;;;5.35;82.97
72409;BME280;60402;48.082;11.628;2022-11-25T10:21:57;95430.94;;;5.20;83.87
72409;BME280;60402;48.082;11.628;2022-11-25T10:24:23;95484.97;;;5.76;82.01
72409;BME280;60402;48.082;11.628;2022-11-25T10:27:23;95411.47;;;5.50;81.50
72409;BME280;60402;48.082;11.628;2022-11-25T10:30:00;95442.94;;;5.69;81.71
72409;BME280;60402;48.082;11.628;2022-11-25T10:32:30;95474.19;;;5.71;82.62
72409;BME280;60402;48.082;11.628;2022-11-25T10:35:04;95445.19;;;5.39;83.05
72409;BME280;60402;48.082;11.628;2022-11-25T10:37:51;95456.38;;;5.43;84.36
72409;BME280;60402;48.082;11.628;2022-11-25T10:40:22;95472.31;;;5.53;85.34
72409;BME280;60402;48.082;11.628;2022-11-25T10:42:55;95501.38;;;5.74;84.10
72409;BME280;60402;48.082;11.628;2022-11-25T10:45:38;95503.38;;;5.77;85.15
72409;BME280;60402;48.082;11.628;2022-11-25T10:48:22;95460.63;;;5.62;83.25
72409;BME280;60402;48.082;11.628;2022-11-25T10:54:12;95492.47;;;5.89;84.28
72409;BME280;60402;48.082;11.628;2022-11-25T10:56:45;95485.97;;;6.00;84.86
72409;BME280;60402;48.082;11.628;2022-11-25T10:59:24;95418.63;;;5.58;82.65
72409;BME280;60402;48.082;11.628;2022-11-25T11:01:51;95424.53;;;5.68;81.65
72409;BME280;60402;48.082;11.628;2022-11-25T11:04:17;95453.91;;;6.01;81.07
72409;BME280;60402;48.082;11.628;2022-11-25T11:06:46;95470.22;;;6.17;81.08
72409;BME280;60402;48.082;11.628;2022-11-25T11:09:35;95478.97;;;6.22;79.67
72409;BME280;60402;48.082;11.628;2022-11-25T11:12:28;95458.13;;;6.20;80.91
72409;BME280;60402;48.082;11.628;2022-11-25T11:15:20;95485.53;;;6.46;80.47
72409;BME280;60402;48.082;11.628;2022-11-25T11:17:48;95441.09;;;6.37;80.18
72409;BME280;60402;48.082;11.628;2022-11-25T11:20:24;95476.66;;;6.82;79.81
72409;BME280;60402;48.082;11.628;2022-11-25T11:25:26;95466.16;;;7.20;77.38
72409;BME280;60402;48.082;11.628;2022-11-25T11:27:52;95447.56;;;6.99;78.01
72409;BME280;60402;48.082;11.628;2022-11-25T11:30:27;95449.09;;;7.04;78.13
72409;BME280;60402;48.082;11.628;2022-11-25T11:33:04;95405.72;;;6.78;76.69
72409;BME280;60402;48.082;11.628;2022-11-25T11:35:56;95474.78;;;7.33;76.71
72409;BME280;60402;48.082;11.628;2022-11-25T11:38:33;95470.66;;;7.41;76.00
72409;BME280;60402;48.082;11.628;2022-11-25T11:49:41;95472.59;;;7.71;76.54
72409;BME280;60402;48.082;11.628;2022-11-25T12:01:03;95454.19;;;7.90;75.54
72409;BME280;60402;48.082;11.628;2022-11-25T12:03:38;95452.22;;;8.14;73.79
72409;BME280;60402;48.082;11.628;2022-11-25T12:06:05;95447.16;;;8.25;73.63
72409;BME280;60402;48.082;11.628;2022-11-25T12:08:47;95462.97;;;8.42;71.54
72409;BME280;60402;48.082;11.628;2022-11-25T12:11:20;95455.16;;;8.50;68.92
72409;BME280;60402;48.082;11.628;2022-11-25T12:21:32;95457.56;;;8.72;67.50
72409;BME280;60402;48.082;11.628;2022-11-25T12:24:20;95446.22;;;8.55;67.40
72409;BME280;60402;48.082;11.628;2022-11-25T12:27:02;95445.13;;;8.49;65.85
72409;BME280;60402;48.082;11.628;2022-11-25T12:29:34;95449.13;;;8.52;66.81
72409;BME280;60402;48.082;11.628;2022-11-25T12:35:17;95444.63;;;8.54;65.24
72409;BME280;60402;48.082;11.628;2022-11-25T12:41:08;95444.91;;;8.60;66.20
72409;BME280;60402;48.082;11.628;2022-11-25T12:46:23;95462.31;;;8.55;66.60
72409;BME280;60402;48.082;11.628;2022-11-25T12:48:52;95458.88;;;8.47;66.90
72409;BME280;60402;48.082;11.628;2022-11-25T12:59:47;95437.63;;;8.42;66.75
72409;BME280;60402;48.082;11.628;2022-11-25T13:03:01;95463.78;;;8.83;66.28
72409;BME280;60402;48.082;11.628;2022-11-25T13:08:27;95446.09;;;8.62;68.38
72409;BME280;60402;48.082;11.628;2022-11-25T13:11:15;95463.94;;;8.76;68.66
72409;BME280;60402;48.082;11.628;2022-11-25T13:16:30;95453.75;;;8.82;68.96
72409;BME280;60402;48.082;11.628;2022-11-25T13:18:56;95452.94;;;8.81;68.52
72409;BME280;60402;48.082;11.628;2022-11-25T13:21:21;95458.06;;;8.86;68.34
72409;BME280;60402;48.082;11.628;2022-11-25T13:29:00;95453.31;;;8.83;69.06
72409;BME280;60402;48.082;11.628;2022-11-25T13:31:31;95461.38;;;9.01;69.64
72409;BME280;60402;48.082;11.628;2022-11-25T13:34:15;95469.25;;;9.10;68.96
72409;BME280;60402;48.082;11.628;2022-11-25T13:36:51;95464.06;;;9.08;69.59
72409;BME280;60402;48.082;11.628;2022-11-25T13:39:34;95456.47;;;9.05;69.71
72409;BME280;60402;48.082;11.628;2022-11-25T13:44:34;95461.66;;;9.07;70.52
72409;BME280;60402;48.082;11.628;2022-11-25T13:49:55;95455.88;;;9.14;70.45
72409;BME280;60402;48.082;11.628;2022-11-25T13:57:44;95481.19;;;9.17;73.37
72409;BME280;60402;48.082;11.628;2022-11-25T14:02:41;95451.13;;;8.91;74.48
72409;BME280;60402;48.082;11.628;2022-11-25T14:05:39;95483.44;;;9.06;73.25
72409;BME280;60402;48.082;11.628;2022-11-25T14:08:28;95480.41;;;8.97;74.33
72409;BME280;60402;48.082;11.628;2022-11-25T14:25:36;95504.34;;;8.65;76.07
72409;BME280;60402;48.082;11.628;2022-11-25T14:30:55;95504.84;;;8.60;79.21
72409;BME280;60402;48.082;11.628;2022-11-25T14:33:50;95470.41;;;8.29;80.02
72409;BME280;60402;48.082;11.628;2022-11-25T14:36:21;95515.03;;;8.54;78.22
72409;BME280;60402;48.082;11.628;2022-11-25T14:38:53;95475.38;;;8.22;78.42
72409;BME280;60402;48.082;11.628;2022-11-25T14:41:25;95506.13;;;8.32;78.70
72409;BME280;60402;48.082;11.628;2022-11-25T14:43:56;95508.66;;;8.27;78.68
72409;BME280;60402;48.082;11.628;2022-11-25T14:46:23;95513.19;;;8.20;79.33
72409;BME280;60402;48.082;11.628;2022-11-25T14:48:58;95551.94;;;8.60;79.35
72409;BME280;60402;48.082;11.628;2022-11-25T14:51:26;95550.56;;;8.48;79.65
72409;BME280;60402;48.082;11.628;2022-11-25T14:53:52;95571.38;;;8.54;79.95
72409;BME280;60402;48.082;11.628;2022-11-25T14:56:30;95563.13;;;8.43;81.05
72409;BME280;60402;48.082;11.628;2022-11-25T14:58:58;95565.66;;;8.34;82.11
72409;BME280;60402;48.082;11.628;2022-11-25T15:01:29;95589.50;;;8.26;83.97